LFPM 181600Z AUTO 11004KT CAVOK 22/14 Q1013

Nombre de NOTAM : 3    
LFFA-E2446/21 
Q) LFFF/QFAAN/IV/NBO/ A/000/999/4849N00237E005
A) LFPL  LOGNES EMERAINVILLE
B) 2021 Jul 01  07:44 C) 2021 Oct 31  06:05
D) SS PLUS30-SR MINUS30
E) UTILSATION AD POSSIBLE DE NUIT POUR AVITAILLEMENT PAR OPERATEURS
 'SMUH' AUTORISES.
LFFA-E3175/21 
Q) LFFF/QAZCA/IV/NBO/AE/000/015/4850N00238E004
A) LFPL  LOGNES EMERAINVILLE
B) 2021 Sep 01  07:00 C) 2021 Sep 30  18:00
E) HORAIRES ATS ET ACTIVATION RMZ 'LOGNES EMERAINVILLE' :
- LUN-JEU : 0700-1030 1200-1800
- VEN-DIM : 0700-1800 SAUF 03 ET 10
- EN DEHORS DE CES HORAIRES, ATS NON ASSURES ET RMZ DESACTIVEE.
LFFA-P1904/21 
Q) LFFF/QOBCE/IV/  M/ A/000/999/4849N00237E005
A) LFPL  LOGNES EMERAINVILLE
B) 2021 Jun 30  18:34 C) 2021 Oct 31  23:59
E) ARBRES IMPACTANT LES SERVITUDES AERONAUTIQUES A PROXIMITE THR 26
 NON REVETU :
-PSN : 484911N 0023802E
       484911N 0023805E
       484911N 0023801E
-ALT AU SOMMET : 422FT
-HAUTEUR : 68FT
-BALISAGE : NIL
  © SIA.